Grafenwoehr, Germany

8:42 PM CEST on July 29, 2016 (GMT +0200)
Grafenwohr Army Air Field | | Change Station

Elev 1362 ft 49.70 °N, 11.94 °E | Updated 44 minutes ago

Clear
Clear
73 °F
Feels Like 73 °F
N
4
Wind Variable Wind from Variable

Today
High -- | Low -- °F
--% Chance of Precip.
Yesterday
High -- | Low -- °F
Precip. -- in
Pressure 29.91 in
Visibility 6.2 miles
Clouds Clear
Dew Point 55 °F
Humidity 53%
Rainfall 0.17 in
Snow Depth Not available.
5:38 AM 8:57 PM
Waning Crescent, 20% visible
METAR ETIC 291758Z AUTO VRB03KT 9999 CLR 23/13 A2994 RMK AO2 SLP127 56005
Pressure 29.91 in
Visibility 6.2 miles
Clouds Clear
Dew Point 55 °F
Humidity 53%
Rainfall 0.17 in
Snow Depth Not available.
5:38 AM 8:57 PM
Waning Crescent, 20% visible
METAR ETIC 291758Z AUTO VRB03KT 9999 CLR 23/13 A2994 RMK AO2 SLP127 56005

10-Day Weather Forecast

×

Almanac

Astronomy

Jul. 29, 2016 Rise Set
Actual Time
Civil Twilight
Nautical Twilight
Astronomical Twilight
Moon
Length of Visible Light
Length of Day
Tomorrow will be .
, % of the Moon is Illuminated

Today's Extremes

Country Highs Country Lows

Community

WunderPhotos

Upload Photos

1,928,393 photos uploaded!

WunderBlog® & News

Nearby

Air Quality

  Air Quality AQ Index Pollutant
Not available.

Snow Depth

Station Depth Elevation

Earthquake Activity

City Distance Mag. Time & Date
Minimum magnitude displayed is 2.5.

Coastal Water Temperatures

Place Temperature

Stations

Nearby Weather Stations

Station Location Temp. Windchill Dew Point Humidity Wind Precip. Elev Updated Type